Time;durP1;ratioP1;P1;durP2;ratioP2;P2;SDS_P1;SDS_P2;PMS_P1;PMS_P2;Temp;Humidity;BMP_temperature;BMP_pressure;BME280_temperature;BME280_humidity;BME280_pressure;Samples;Min_cycle;Max_cycle;Signal;HPM_P1;HPM_P2
2022/04/12 00:01:08;;;;;;;11.65;7.05;;;;;;;10.21;69.82;98943.19;5015481;28;20197;-75
2022/04/12 00:03:35;;;;;;;10.60;7.00;;;;;;;10.22;69.29;98942.22;5001099;28;20203;-75
2022/04/12 00:06:03;;;;;;;8.02;5.82;;;;;;;10.15;69.67;98949.00;4995448;28;20186;-75
2022/04/12 00:08:30;;;;;;;8.82;6.07;;;;;;;10.35;69.57;98933.34;4995818;28;20215;-75
2022/04/12 00:10:57;;;;;;;10.40;6.13;;;;;;;10.44;69.91;98940.78;4995752;28;20203;-75
2022/04/12 00:13:23;;;;;;;7.78;4.80;;;;;;;10.44;70.52;98938.94;5006188;28;20212;-75
2022/04/12 00:15:50;;;;;;;5.10;4.30;;;;;;;10.57;70.12;98939.00;5014976;28;20186;-75
2022/04/12 00:21:03;;;;;;;7.50;4.63;;;;;;;10.53;70.96;98934.78;5014922;28;20260;-75
2022/04/12 00:23:29;;;;;;;7.35;5.15;;;;;;;10.25;72.60;98933.09;5001761;28;20226;-75
2022/04/12 00:25:56;;;;;;;5.45;4.70;;;;;;;10.22;72.98;98933.25;4995493;28;20820;-75
2022/04/12 00:28:23;;;;;;;9.80;5.63;;;;;;;10.29;73.27;98931.94;4995449;28;20676;-74
2022/04/12 00:30:49;;;;;;;6.85;5.60;;;;;;;10.28;73.53;98930.19;4995430;28;20713;-74
2022/04/12 00:33:16;;;;;;;7.97;6.13;;;;;;;10.25;73.56;98926.84;4996481;28;20195;-74
2022/04/12 00:35:43;;;;;;;7.57;5.93;;;;;;;10.32;73.08;98933.56;4994999;28;20195;-74
2022/04/12 00:38:22;;;;;;;7.90;5.85;;;;;;;10.19;72.81;98925.41;4995592;28;20213;-75
2022/04/12 00:40:49;;;;;;;8.95;6.00;;;;;;;10.06;72.76;98933.44;5014853;28;20548;-75
2022/04/12 00:43:17;;;;;;;10.95;6.22;;;;;;;10.00;73.00;98921.28;5003494;28;20206;-74
2022/04/12 00:45:44;;;;;;;8.27;6.53;;;;;;;10.00;73.26;98918.59;4994884;28;20195;-74
2022/04/12 00:48:11;;;;;;;11.98;6.57;;;;;;;10.06;73.37;98919.97;5005844;28;20228;-74
2022/04/12 00:50:38;;;;;;;12.45;5.40;;;;;;;10.19;72.44;98915.50;5014935;28;20253;-74
2022/04/12 00:53:07;;;;;;;8.60;6.28;;;;;;;10.13;72.56;98913.25;5003230;28;20207;-75
2022/04/12 00:55:35;;;;;;;8.23;6.53;;;;;;;10.08;73.92;98919.88;4994366;28;20239;-75
2022/04/12 00:58:06;;;;;;;11.43;6.80;;;;;;;10.17;75.22;98911.19;4995048;28;20191;-74
2022/04/12 01:00:33;;;;;;;11.23;6.88;;;;;;;9.94;77.77;98910.06;4994806;28;20227;-74
2022/04/12 01:02:59;;;;;;;10.35;7.28;;;;;;;9.99;77.99;98915.97;5002466;28;20227;-74
2022/04/12 01:05:26;;;;;;;7.43;5.85;;;;;;;10.07;77.41;98905.59;5014261;28;20610;-75
2022/04/12 01:07:53;;;;;;;11.57;7.53;;;;;;;10.23;75.97;98903.56;5014183;28;20226;-75
2022/04/12 01:10:20;;;;;;;8.43;6.13;;;;;;;10.27;75.42;98900.69;5014241;28;20586;-74
2022/04/12 01:12:48;;;;;;;9.65;7.40;;;;;;;10.25;75.49;98905.31;5008681;28;20191;-75
2022/04/12 01:15:17;;;;;;;7.93;6.35;;;;;;;10.26;75.66;98897.13;4993925;28;20207;-75
2022/04/12 01:17:44;;;;;;;9.07;6.50;;;;;;;10.19;75.65;98906.59;4994029;28;20188;-74
2022/04/12 01:20:12;;;;;;;9.93;6.55;;;;;;;10.15;76.33;98900.56;4994241;28;20226;-74
2022/04/12 01:22:48;;;;;;;7.60;6.40;;;;;;;9.93;77.49;98895.75;4997720;28;20913;-74
2022/04/12 01:25:15;;;;;;;7.72;6.28;;;;;;;9.99;78.02;98899.84;5013808;28;20233;-74
2022/04/12 01:27:42;;;;;;;6.50;5.80;;;;;;;10.08;76.98;98893.84;5013950;28;20213;-75
2022/04/12 01:30:10;;;;;;;8.38;6.82;;;;;;;10.03;75.98;98896.00;5013925;28;20673;-74
2022/04/12 01:32:36;;;;;;;7.45;6.15;;;;;;;9.96;76.89;98897.38;5011502;28;20191;-74
2022/04/12 01:35:03;;;;;;;9.65;7.03;;;;;;;9.88;77.76;98894.31;4994125;28;20676;-73
2022/04/12 01:37:30;;;;;;;8.30;7.13;;;;;;;9.86;77.83;98899.81;5000283;28;20274;-74
2022/04/12 01:39:57;;;;;;;12.20;9.07;;;;;;;9.88;78.27;98894.31;5012018;28;20206;-74
2022/04/12 01:42:25;;;;;;;10.05;8.02;;;;;;;9.88;78.36;98897.00;5007582;28;20385;-74
2022/04/12 01:44:51;;;;;;;7.75;6.95;;;;;;;9.75;79.75;98892.47;4994110;28;20231;-74
2022/04/12 01:47:18;;;;;;;7.40;6.38;;;;;;;9.85;79.16;98887.31;4993530;28;20221;-74
2022/04/12 01:49:45;;;;;;;7.70;5.75;;;;;;;9.95;78.54;98887.56;4994130;28;20586;-74
2022/04/12 01:52:12;;;;;;;5.43;4.88;;;;;;;9.88;78.74;98894.31;4995428;28;20263;-74
2022/04/12 01:54:38;;;;;;;7.25;5.60;;;;;;;9.73;79.34;98888.16;5012021;28;20249;-75
2022/04/12 01:57:05;;;;;;;6.38;5.40;;;;;;;9.71;80.02;98885.56;5013360;28;20195;-74
2022/04/12 01:59:33;;;;;;;7.40;5.78;;;;;;;9.61;81.01;98884.44;5013381;28;20186;-74
2022/04/12 02:02:00;;;;;;;6.88;5.82;;;;;;;9.66;80.34;98893.06;5013014;28;20206;-75
2022/04/12 02:04:27;;;;;;;9.15;6.90;;;;;;;9.49;80.45;98891.47;5013271;28;20183;-75
2022/04/12 02:06:53;;;;;;;17.33;10.15;;;;;;;9.36;81.04;98891.41;5013248;28;20209;-74
2022/04/12 02:09:20;;;;;;;18.13;11.55;;;;;;;9.41;80.19;98888.44;5013303;28;20189;-74
2022/04/12 02:11:46;;;;;;;17.30;10.45;;;;;;;9.38;80.74;98889.50;5012896;28;20189;-75
2022/04/12 02:14:13;;;;;;;15.85;10.48;;;;;;;9.30;81.11;98883.75;4995112;28;20719;-74
2022/04/12 02:16:41;;;;;;;14.05;10.27;;;;;;;9.11;82.49;98885.88;4993752;28;20532;-75
2022/04/12 02:19:08;;;;;;;15.27;10.30;;;;;;;9.16;82.48;98889.16;4993815;28;20197;-76
2022/04/12 02:21:34;;;;;;;15.27;9.98;;;;;;;9.31;81.82;98880.06;4993309;28;20194;-75
2022/04/12 02:24:01;;;;;;;14.98;10.35;;;;;;;9.29;81.78;98884.69;5009809;28;20201;-74
2022/04/12 02:26:27;;;;;;;14.48;9.43;;;;;;;9.21;82.50;98883.47;5006161;28;20571;-74
2022/04/12 02:28:54;;;;;;;17.10;10.50;;;;;;;9.23;82.38;98878.88;4994772;28;20217;-74
2022/04/12 02:31:21;;;;;;;12.60;8.60;;;;;;;9.27;82.17;98878.56;5001966;28;20208;-74
2022/04/12 02:33:48;;;;;;;12.40;8.38;;;;;;;9.26;81.91;98882.22;5017134;28;20535;-74
2022/04/12 02:36:15;;;;;;;13.73;9.85;;;;;;;9.31;82.22;98881.91;5017014;28;20300;-75
2022/04/12 02:38:42;;;;;;;16.98;9.45;;;;;;;9.06;83.60;98877.25;5016809;28;20189;-74
2022/04/12 02:41:08;;;;;;;13.02;8.70;;;;;;;9.00;84.69;98872.25;5013491;28;20193;-75
2022/04/12 02:43:35;;;;;;;12.88;8.38;;;;;;;9.12;83.68;98866.13;5005334;28;20229;-74
2022/04/12 02:46:02;;;;;;;10.05;7.70;;;;;;;9.26;83.23;98873.28;5016921;28;20532;-74
2022/04/12 02:48:29;;;;;;;11.77;8.10;;;;;;;9.48;82.00;98867.41;5016754;28;20300;-75
2022/04/12 02:50:57;;;;;;;11.07;7.05;;;;;;;9.50;82.66;98870.84;5015690;28;20209;-74
2022/04/12 02:53:24;;;;;;;8.95;7.25;;;;;;;9.44;84.31;98855.13;4997382;28;20632;-75
2022/04/12 02:55:50;;;;;;;7.00;5.70;;;;;;;9.54;83.87;98861.59;4996909;28;20714;-75
2022/04/12 02:58:17;;;;;;;11.10;7.32;;;;;;;9.47;85.17;98860.28;4997298;28;20632;-74
2022/04/12 03:00:44;;;;;;;7.55;6.10;;;;;;;9.51;85.46;98859.97;4997188;28;20199;-75
2022/04/12 03:03:11;;;;;;;6.70;5.45;;;;;;;9.41;86.48;98866.94;5014436;28;20207;-75
2022/04/12 03:05:37;;;;;;;9.63;6.05;;;;;;;9.44;86.23;98863.19;5016348;28;20187;-74
2022/04/12 03:08:07;;;;;;;8.07;6.20;;;;;;;9.36;86.57;98869.91;5016581;28;20237;-74
2022/04/12 03:10:33;;;;;;;10.30;6.13;;;;;;;9.42;85.95;98867.78;5016398;28;20649;-74
2022/04/12 03:13:00;;;;;;;75.00;15.85;;;;;;;9.43;85.50;98861.44;4998680;28;20204;-75
2022/04/12 03:15:27;;;;;;;7.82;6.80;;;;;;;9.21;85.72;98857.47;4996592;28;20213;-75
2022/04/12 03:17:53;;;;;;;8.13;5.63;;;;;;;9.33;85.84;98861.19;5010413;28;20636;-75
2022/04/12 03:20:20;;;;;;;6.35;5.43;;;;;;;9.38;85.17;98853.69;5002782;28;20682;-75
2022/04/12 03:22:47;;;;;;;6.70;6.00;;;;;;;9.32;86.16;98856.78;5013515;28;20211;-75
2022/04/12 03:25:15;;;;;;;8.85;5.60;;;;;;;9.30;85.79;98853.34;5008604;28;20204;-75
2022/04/12 03:27:41;;;;;;;8.40;6.13;;;;;;;9.34;86.48;98855.72;4996012;28;20215;-75
2022/04/12 03:30:09;;;;;;;8.88;6.13;;;;;;;9.37;85.30;98855.50;4996534;28;20206;-75
2022/04/12 03:32:35;;;;;;;10.35;5.70;;;;;;;9.40;85.48;98847.25;4996169;28;20193;-75
2022/04/12 03:35:02;;;;;;;9.73;5.85;;;;;;;9.41;85.11;98842.75;5001580;28;20220;-75
2022/04/12 03:37:29;;;;;;;7.30;5.90;;;;;;;9.43;84.77;98837.25;5015387;28;20212;-76
2022/04/12 03:39:55;;;;;;;6.95;6.22;;;;;;;9.44;84.66;98842.53;5015262;28;20192;-75
2022/04/12 03:42:24;;;;;;;8.00;6.65;;;;;;;9.47;84.13;98836.09;5015798;28;20185;-75
2022/04/12 03:44:51;;;;;;;7.40;5.63;;;;;;;9.67;82.44;98850.91;5013912;28;20492;-75
2022/04/12 03:47:18;;;;;;;9.95;6.03;;;;;;;9.53;83.38;98841.94;5015614;28;20665;-74
2022/04/12 03:49:45;;;;;;;9.13;6.80;;;;;;;9.36;84.75;98847.53;5015768;28;20221;-75
2022/04/12 03:52:11;;;;;;;9.40;6.88;;;;;;;9.38;85.33;98851.88;5015509;28;20531;-75
2022/04/12 03:54:38;;;;;;;8.35;5.93;;;;;;;9.25;84.62;98844.69;5013915;28;20613;-76
2022/04/12 03:57:05;;;;;;;7.80;6.07;;;;;;;9.29;86.18;98839.03;4997040;28;20666;-75
2022/04/12 03:59:33;;;;;;;7.60;5.85;;;;;;;9.37;85.17;98836.72;4995998;28;20526;-74
2022/04/12 04:02:00;;;;;;;9.43;6.35;;;;;;;9.40;84.95;98839.19;4995580;28;20301;-75
2022/04/12 04:04:27;;;;;;;9.32;6.18;;;;;;;9.46;84.64;98831.69;4995674;28;20524;-74
2022/04/12 04:06:53;;;;;;;5.78;5.28;;;;;;;9.63;83.72;98841.31;5012264;28;20194;-75
2022/04/12 04:09:20;;;;;;;8.07;5.97;;;;;;;9.67;82.30;98835.66;5015166;28;20572;-74
2022/04/12 04:11:48;;;;;;;6.60;5.80;;;;;;;9.60;81.79;98834.34;4996610;28;20214;-74
2022/04/12 04:14:15;;;;;;;7.47;5.47;;;;;;;9.46;82.15;98829.00;4995771;28;20249;-74
2022/04/12 04:16:43;;;;;;;7.18;5.95;;;;;;;9.24;84.06;98838.47;5013222;28;20201;-75
2022/04/12 04:19:09;;;;;;;8.30;5.30;;;;;;;9.27;84.50;98835.59;5015086;28;20197;-75
2022/04/12 04:21:36;;;;;;;7.22;5.68;;;;;;;9.22;85.06;98835.00;5014722;28;20201;-75
2022/04/12 04:24:04;;;;;;;7.10;5.13;;;;;;;9.27;84.89;98832.91;5015181;28;20186;-75
2022/04/12 04:26:30;;;;;;;5.57;5.00;;;;;;;9.35;84.43;98841.31;5012029;28;20197;-75
2022/04/12 04:28:57;;;;;;;7.97;5.25;;;;;;;9.47;83.96;98841.47;5014532;28;20219;-75
2022/04/12 04:31:23;;;;;;;6.43;5.50;;;;;;;9.42;83.92;98844.47;5014580;28;20280;-75
2022/04/12 04:33:51;;;;;;;19.23;7.75;;;;;;;9.48;84.59;98846.75;5014306;28;20204;-75
2022/04/12 04:36:18;;;;;;;14.55;5.85;;;;;;;9.42;84.01;98841.78;5000331;28;20286;-74
2022/04/12 04:38:44;;;;;;;7.05;5.15;;;;;;;9.30;84.34;98846.13;4995125;28;20183;-75
2022/04/12 04:41:11;;;;;;;7.22;5.30;;;;;;;9.20;86.44;98845.00;4995289;28;20207;-75
2022/04/12 04:43:38;;;;;;;7.13;4.93;;;;;;;9.28;85.47;98844.50;4994636;28;20201;-75
2022/04/12 04:46:05;;;;;;;9.93;6.25;;;;;;;9.16;86.93;98855.09;5005997;28;20195;-74
2022/04/12 04:48:31;;;;;;;6.70;5.90;;;;;;;9.12;87.72;98850.00;5014455;28;20224;-75
2022/04/12 04:51:00;;;;;;;7.28;5.93;;;;;;;9.02;87.93;98851.53;5014875;28;20654;-74
2022/04/12 04:53:26;;;;;;;5.75;5.15;;;;;;;8.89;89.83;98851.47;5010927;28;20195;-74
2022/04/12 04:55:53;;;;;;;9.27;6.15;;;;;;;8.86;89.98;98849.81;5005361;28;20260;-75
2022/04/12 04:58:19;;;;;;;9.40;6.32;;;;;;;8.84;90.25;98846.41;4994272;28;20187;-74
2022/04/12 05:00:46;;;;;;;7.00;6.30;;;;;;;8.84;90.86;98851.78;5008254;28;20204;-75
2022/04/12 05:03:13;;;;;;;9.35;6.07;;;;;;;8.97;90.59;98849.16;5014244;28;20189;-74
2022/04/12 05:05:39;;;;;;;7.75;5.75;;;;;;;9.12;89.03;98848.19;5013963;28;20186;-75
2022/04/12 05:08:08;;;;;;;7.40;6.07;;;;;;;9.23;88.57;98858.25;5014127;28;20202;-75
2022/04/12 05:10:34;;;;;;;8.35;5.80;;;;;;;9.33;87.19;98851.28;5013877;28;20560;-74
2022/04/12 05:13:02;;;;;;;6.72;5.93;;;;;;;9.42;86.45;98841.78;4999195;28;20708;-75
2022/04/12 05:15:30;;;;;;;9.00;6.70;;;;;;;9.32;88.09;98835.28;4994226;28;20519;-75
2022/04/12 05:17:56;;;;;;;9.20;6.35;;;;;;;9.32;87.85;98829.94;4993742;28;20546;-75
2022/04/12 05:20:25;;;;;;;8.50;6.65;;;;;;;9.26;88.56;98846.44;4993660;28;20198;-75
2022/04/12 05:22:52;;;;;;;7.93;6.10;;;;;;;9.31;89.12;98844.31;4993702;28;20256;-76
2022/04/12 05:25:20;;;;;;;10.45;7.00;;;;;;;9.52;88.35;98847.41;4993274;28;20276;-75
2022/04/12 05:27:48;;;;;;;9.18;7.10;;;;;;;9.64;87.56;98848.44;4993694;28;20274;-74
2022/04/12 05:30:16;;;;;;;12.25;8.60;;;;;;;9.62;88.12;98843.16;4994893;28;20277;-76
2022/04/12 05:32:43;;;;;;;11.27;7.30;;;;;;;9.53;87.94;98841.09;4992792;28;20214;-75
2022/04/12 05:35:11;;;;;;;13.57;7.57;;;;;;;9.44;88.92;98839.84;4993090;28;20199;-74
2022/04/12 05:37:45;;;;;;;9.80;6.97;;;;;;;9.36;89.27;98840.38;4993191;28;20278;-76
2022/04/12 05:40:12;;;;;;;12.48;8.30;;;;;;;9.49;88.93;98848.47;4993425;28;20249;-75
2022/04/12 05:42:41;;;;;;;6.82;6.22;;;;;;;9.36;89.12;98858.28;4994082;28;20220;-78
2022/04/12 05:45:09;;;;;;;15.88;7.32;;;;;;;9.71;85.80;98856.00;4992056;28;20210;-75
2022/04/12 05:47:43;;;;;;;12.02;6.95;;;;;;;9.89;84.45;98861.97;4992485;28;20286;-76
2022/04/12 05:50:11;;;;;;;8.95;6.03;;;;;;;9.84;84.51;98866.78;4992566;28;20226;-77
2022/04/12 05:52:38;;;;;;;9.32;6.13;;;;;;;9.87;82.01;98874.66;5012512;28;20204;-76
2022/04/12 05:55:06;;;;;;;9.20;7.70;;;;;;;9.96;81.20;98875.88;5005052;28;20699;-77
2022/04/12 05:57:36;;;;;;;8.45;6.82;;;;;;;10.04;80.15;98876.22;4992689;28;20210;-78
2022/04/12 06:00:07;;;;;;;6.50;5.47;;;;;;;9.99;79.53;98872.94;4992357;28;20237;-78
2022/04/12 06:02:34;;;;;;;9.98;7.15;;;;;;;10.07;79.93;98878.69;4991809;28;20194;-78
2022/04/12 06:05:00;;;;;;;8.02;5.18;;;;;;;10.21;78.66;98888.50;4992037;28;20278;-78
2022/04/12 06:07:31;;;;;;;7.60;6.40;;;;;;;10.26;77.86;98886.38;4991908;28;20210;-78
2022/04/12 06:09:57;;;;;;;6.53;5.78;;;;;;;10.41;76.44;98881.81;4992549;28;20255;-79
2022/04/12 06:12:24;;;;;;;8.13;6.50;;;;;;;10.55;76.65;98878.16;4992945;28;20201;-76
2022/04/12 06:14:50;;;;;;;10.18;6.40;;;;;;;10.67;75.93;98881.81;4992793;28;20191;-76
2022/04/12 06:17:18;;;;;;;8.80;6.22;;;;;;;10.89;73.84;98889.25;4992736;28;20579;-75
2022/04/12 06:19:45;;;;;;;9.05;6.80;;;;;;;11.04;74.01;98889.03;4993022;28;20218;-75
2022/04/12 06:22:11;;;;;;;9.13;5.95;;;;;;;10.96;72.84;98890.53;4993371;28;20697;-77
2022/04/12 06:24:38;;;;;;;17.67;6.78;;;;;;;10.99;72.90;98891.19;4992212;28;20298;-75
2022/04/12 06:27:06;;;;;;;10.73;6.07;;;;;;;10.96;73.31;98877.94;4992554;28;20657;-74
2022/04/12 06:29:34;;;;;;;9.48;5.38;;;;;;;10.92;72.66;98889.03;4991887;28;20211;-76
2022/04/12 06:32:00;;;;;;;8.68;5.50;;;;;;;11.03;71.60;98881.94;4990808;28;20223;-74
2022/04/12 06:34:28;;;;;;;7.93;5.10;;;;;;;10.89;72.23;98890.09;4991974;28;20258;-76
2022/04/12 06:36:55;;;;;;;6.45;5.15;;;;;;;11.20;70.96;98890.63;4992398;28;20191;-76
2022/04/12 06:39:21;;;;;;;11.50;5.75;;;;;;;11.24;70.70;98884.06;4992249;28;20203;-76
2022/04/12 06:41:48;;;;;;;7.20;5.70;;;;;;;11.25;70.24;98880.38;4992355;28;20194;-76
2022/04/12 06:44:15;;;;;;;8.80;5.47;;;;;;;11.42;69.61;98882.72;4992043;28;20187;-76
2022/04/12 06:46:41;;;;;;;6.93;5.20;;;;;;;11.50;67.58;98886.69;4991997;28;20207;-78
2022/04/12 06:49:08;;;;;;;6.95;4.47;;;;;;;11.49;68.23;98872.34;4991666;28;20287;-77
2022/04/12 06:51:36;;;;;;;7.07;5.13;;;;;;;11.62;68.00;98872.28;4991881;28;20238;-77
2022/04/12 06:54:02;;;;;;;7.30;5.40;;;;;;;11.81;66.65;98882.59;4992088;28;20203;-76
2022/04/12 06:56:29;;;;;;;8.32;4.50;;;;;;;11.93;65.25;98880.81;4991876;28;20239;-77
2022/04/12 06:58:55;;;;;;;8.02;6.10;;;;;;;12.06;64.66;98887.03;4991760;28;20199;-77
2022/04/12 07:01:22;;;;;;;6.65;5.80;;;;;;;12.15;64.20;98893.56;4992007;28;20207;-77
2022/04/12 07:03:49;;;;;;;6.03;5.35;;;;;;;12.30;63.19;98890.56;4992237;28;20631;-76
2022/04/12 07:06:15;;;;;;;5.85;5.15;;;;;;;12.58;60.94;98882.16;4991720;28;20215;-77
2022/04/12 07:08:43;;;;;;;6.30;5.00;;;;;;;12.45;60.89;98875.00;4991565;28;20545;-77
2022/04/12 07:11:10;;;;;;;7.53;4.60;;;;;;;12.64;60.06;98874.44;4991737;28;20300;-77
2022/04/12 07:13:36;;;;;;;6.03;5.30;;;;;;;12.66;59.89;98879.72;4991599;28;20192;-77
2022/04/12 07:16:03;;;;;;;5.60;4.00;;;;;;;12.77;58.65;98886.97;4992936;28;20192;-79
2022/04/12 07:18:30;;;;;;;7.15;5.38;;;;;;;12.90;58.97;98887.75;4995532;28;20628;-77
2022/04/12 07:20:57;;;;;;;5.97;4.72;;;;;;;12.89;58.35;98888.72;4995200;28;20274;-79
2022/04/12 07:23:23;;;;;;;7.75;4.18;;;;;;;12.89;58.17;98892.28;4994970;28;20198;-78
2022/04/12 07:25:52;;;;;;;6.80;4.63;;;;;;;13.08;57.41;98894.38;5007521;28;20226;-79
2022/04/12 07:28:19;;;;;;;8.50;4.28;;;;;;;13.06;56.45;98892.78;5014207;28;20255;-77
2022/04/12 07:30:45;;;;;;;8.18;4.32;;;;;;;13.20;56.73;98884.44;5014272;28;20218;-79
2022/04/12 07:33:12;;;;;;;5.93;4.88;;;;;;;13.25;56.48;98879.53;5001573;28;20230;-78
2022/04/12 07:35:38;;;;;;;8.95;6.43;;;;;;;13.42;56.72;98883.59;4994182;28;20207;-78
2022/04/12 07:38:06;;;;;;;8.05;4.85;;;;;;;13.40;56.40;98874.75;4994540;28;20284;-77
2022/04/12 07:40:32;;;;;;;11.88;7.85;;;;;;;13.36;56.83;98873.25;4994606;28;20185;-77
2022/04/12 07:43:00;;;;;;;9.30;5.75;;;;;;;13.46;56.65;98866.13;4994456;28;20669;-77
2022/04/12 07:45:27;;;;;;;6.93;6.20;;;;;;;13.56;56.55;98871.66;4994239;28;20192;-78
2022/04/12 07:47:54;;;;;;;8.88;5.18;;;;;;;13.59;55.96;98878.63;4993876;28;20295;-77
2022/04/12 07:50:20;;;;;;;6.28;4.65;;;;;;;13.71;55.33;98864.97;4994392;28;20230;-78
2022/04/12 07:52:47;;;;;;;5.93;4.43;;;;;;;13.81;55.18;98866.91;4993999;28;20278;-77
2022/04/12 07:55:13;;;;;;;9.02;4.80;;;;;;;13.72;55.86;98863.13;4993931;28;20239;-77
2022/04/12 07:57:40;;;;;;;19.73;8.90;;;;;;;13.98;55.06;98863.66;4994407;28;20189;-76
2022/04/12 08:00:10;;;;;;;5.22;4.72;;;;;;;13.94;55.13;98868.47;4994289;28;20276;-77
2022/04/12 08:02:37;;;;;;;8.32;4.45;;;;;;;13.99;54.55;98868.09;4994321;28;20200;-77
2022/04/12 08:05:03;;;;;;;9.30;8.15;;;;;;;14.18;54.24;98870.13;4994243;28;20188;-77
2022/04/12 08:07:30;;;;;;;6.78;4.43;;;;;;;14.34;53.42;98872.38;4993696;28;20204;-76
2022/04/12 08:09:57;;;;;;;4.47;4.07;;;;;;;14.49;53.21;98865.63;4994107;28;20251;-76
2022/04/12 08:12:23;;;;;;;4.50;3.63;;;;;;;14.69;52.06;98869.34;4994492;28;20210;-76
2022/04/12 08:14:50;;;;;;;4.78;3.70;;;;;;;14.83;51.50;98864.59;4994073;28;20658;-79
2022/04/12 08:17:18;;;;;;;5.68;3.83;;;;;;;14.94;51.77;98861.81;4994112;28;20200;-77
2022/04/12 08:19:44;;;;;;;6.10;3.30;;;;;;;15.10;51.04;98864.88;5005310;28;20186;-77
2022/04/12 08:22:11;;;;;;;5.15;3.90;;;;;;;15.32;50.27;98866.53;5012664;28;20206;-77
2022/04/12 08:24:38;;;;;;;6.32;4.82;;;;;;;15.60;49.56;98873.06;4994159;28;20198;-76
2022/04/12 08:27:04;;;;;;;7.25;4.45;;;;;;;15.75;48.40;98878.13;4993154;28;20203;-76
2022/04/12 08:29:31;;;;;;;5.60;4.05;;;;;;;15.56;49.17;98876.19;4994020;28;20221;-77
2022/04/12 08:31:58;;;;;;;6.78;3.72;;;;;;;15.80;48.46;98881.25;4994213;28;20211;-77
2022/04/12 08:34:26;;;;;;;4.50;3.85;;;;;;;16.19;47.82;98874.03;4993639;28;20184;-77
2022/04/12 08:36:53;;;;;;;5.88;3.72;;;;;;;16.41;47.26;98878.31;4994332;28;20184;-77
2022/04/12 08:39:19;;;;;;;4.38;2.90;;;;;;;16.56;47.13;98876.00;4994015;28;20203;-78
2022/04/12 08:41:46;;;;;;;4.28;3.50;;;;;;;16.83;46.37;98877.16;4993905;28;20366;-76
2022/04/12 08:44:13;;;;;;;4.60;3.35;;;;;;;17.04;45.68;98874.22;4993481;28;20672;-75
2022/04/12 08:46:44;;;;;;;3.65;2.90;;;;;;;17.24;45.30;98862.25;4993122;28;20194;-78
2022/04/12 08:49:11;;;;;;;7.63;3.50;;;;;;;17.46;45.22;98865.63;4993080;28;20205;-78
2022/04/12 08:51:39;;;;;;;5.82;3.85;;;;;;;17.58;44.70;98874.44;4993216;28;20544;-77
2022/04/12 08:54:08;;;;;;;5.43;3.80;;;;;;;17.52;45.21;98870.44;4993288;28;20673;-76
2022/04/12 08:56:35;;;;;;;4.45;3.13;;;;;;;17.59;44.98;98866.13;4992886;28;20286;-79
2022/04/12 08:59:04;;;;;;;4.07;2.63;;;;;;;17.62;44.66;98868.53;4993286;28;20859;-77
2022/04/12 09:01:31;;;;;;;4.47;4.07;;;;;;;17.77;44.89;98862.56;4993228;28;20575;-78
2022/04/12 09:04:15;;;;;;;10.07;5.95;;;;;;;18.10;44.11;98864.66;4995316;28;20199;-80
2022/04/12 09:06:54;;;;;;;4.53;3.30;;;;;;;17.97;44.56;98858.72;4991931;28;20218;-79
2022/04/12 09:09:22;;;;;;;6.10;2.97;;;;;;;18.00;44.86;98863.00;4992400;28;20209;-79
2022/04/12 09:12:00;;;;;;;4.95;2.60;;;;;;;18.24;44.39;98857.81;4993871;28;20187;-81
2022/04/12 09:14:36;;;;;;;5.05;3.10;;;;;;;18.21;44.75;98854.56;4992231;28;20192;-84
2022/04/12 09:17:04;;;;;;;9.00;3.75;;;;;;;18.32;44.58;98848.88;5009766;28;20195;-82
2022/04/12 09:19:42;;;;;;;4.18;3.47;;;;;;;18.49;44.31;98850.69;5012415;28;20195;-80
2022/04/12 09:22:16;;;;;;;3.75;3.15;;;;;;;18.75;43.25;98847.16;5013442;28;20213;-86
2022/04/12 09:24:47;;;;;;;4.10;3.63;;;;;;;19.07;42.69;98848.41;5015264;28;20542;-81
2022/04/12 09:27:15;;;;;;;5.78;4.25;;;;;;;19.16;42.69;98839.25;5013149;28;20543;-86
2022/04/12 09:29:49;;;;;;;3.20;2.90;;;;;;;19.41;42.34;98844.84;5013286;28;20398;-83
2022/04/12 09:32:16;;;;;;;7.13;4.13;;;;;;;19.51;41.91;98843.66;5012847;28;20194;-83
2022/04/12 09:34:44;;;;;;;4.28;3.72;;;;;;;19.65;40.93;98847.66;5012748;28;20267;-84
2022/04/12 09:37:24;;;;;;;4.15;2.97;;;;;;;19.69;40.87;98840.84;5012704;28;20237;-84
2022/04/12 09:39:56;;;;;;;4.30;2.75;;;;;;;19.75;40.80;98842.94;5010667;28;20472;-83
2022/04/12 09:42:39;;;;;;;4.65;3.10;;;;;;;19.68;41.05;98841.00;5012145;28;20299;-83
2022/04/12 09:45:08;;;;;;;3.83;3.10;;;;;;;19.80;40.85;98831.50;5012229;28;20190;-82
2022/04/12 09:47:35;;;;;;;5.28;2.53;;;;;;;19.81;40.27;98833.22;5012246;28;20190;-83
2022/04/12 09:50:02;;;;;;;3.70;2.87;;;;;;;20.02;40.52;98834.63;5012299;28;20513;-83
2022/04/12 09:52:30;;;;;;;2.47;2.27;;;;;;;20.10;40.27;98821.84;5012179;28;20979;-83
2022/04/12 09:54:57;;;;;;;4.80;2.75;;;;;;;20.19;40.33;98825.41;5011676;28;20816;-82
2022/04/12 09:57:26;;;;;;;6.93;3.10;;;;;;;20.10;40.15;98821.84;5011735;28;20281;-83
2022/04/12 09:59:55;;;;;;;2.38;2.15;;;;;;;20.08;40.77;98818.44;5008594;28;20950;-80
2022/04/12 10:02:23;;;;;;;4.22;3.10;;;;;;;20.20;40.56;98819.78;5010679;28;20206;-82
2022/04/12 10:04:52;;;;;;;4.13;2.83;;;;;;;20.33;40.76;98804.78;5010920;28;20206;-83
2022/04/12 10:07:20;;;;;;;4.37;2.93;;;;;;;20.46;40.58;98799.63;5010956;28;20190;-82
2022/04/12 10:09:49;;;;;;;6.40;2.70;;;;;;;20.50;39.50;98806.47;5010499;28;20523;-83
2022/04/12 10:12:17;;;;;;;7.73;3.23;;;;;;;20.49;39.30;98802.03;5010752;28;20448;-82
2022/04/12 10:14:44;;;;;;;4.03;2.57;;;;;;;20.50;39.05;98800.13;5011667;28;20425;-83
2022/04/12 10:17:12;;;;;;;3.20;2.90;;;;;;;20.71;38.81;98803.22;5011202;28;20450;-83
2022/04/12 10:19:40;;;;;;;4.80;2.70;;;;;;;20.90;38.65;98792.94;5011317;28;20441;-84
2022/04/12 10:22:07;;;;;;;3.17;2.73;;;;;;;20.95;37.78;98790.53;5010837;28;20445;-83
2022/04/12 10:24:35;;;;;;;2.70;2.50;;;;;;;20.75;37.82;98793.63;5010840;28;20430;-84
2022/04/12 10:27:04;;;;;;;3.37;2.50;;;;;;;20.84;37.67;98786.25;5011349;28;20465;-85
2022/04/12 10:29:31;;;;;;;5.00;3.43;;;;;;;21.09;37.74;98781.56;5011227;28;20436;-83
2022/04/12 10:31:59;;;;;;;5.43;2.70;;;;;;;21.23;37.41;98796.41;5011115;28;20482;-83
2022/04/12 10:34:26;;;;;;;5.67;2.53;;;;;;;21.19;37.43;98795.06;5010845;28;20441;-83
2022/04/12 10:37:05;;;;;;;3.63;2.50;;;;;;;21.36;37.06;98796.69;5010951;28;20449;-83
2022/04/12 10:39:37;;;;;;;3.90;3.03;;;;;;;21.47;36.80;98794.63;5011179;28;20448;-84
2022/04/12 10:42:11;;;;;;;3.57;3.00;;;;;;;21.52;37.34;98789.47;5011274;28;20775;-85
2022/04/12 10:44:43;;;;;;;3.00;2.23;;;;;;;21.19;38.32;98789.59;5011505;28;20915;-84
2022/04/12 10:47:29;;;;;;;9.40;3.23;;;;;;;21.56;38.44;98783.44;5010969;28;20772;-84
2022/04/12 10:50:00;;;;;;;3.57;2.57;;;;;;;21.60;38.09;98779.31;5012556;28;20798;-84
2022/04/12 10:52:35;;;;;;;8.80;6.53;;;;;;;21.54;38.70;98785.50;5014833;28;20469;-84
2022/04/12 10:55:04;;;;;;;5.00;2.60;;;;;;;21.10;39.87;98779.69;5014239;28;20465;-83
2022/04/12 10:57:32;;;;;;;4.13;2.97;;;;;;;21.52;40.27;98778.50;5014598;28;20429;-83
2022/04/12 11:00:03;;;;;;;5.13;2.80;;;;;;;21.40;40.88;98781.66;5011311;28;20850;-84
2022/04/12 11:02:36;;;;;;;5.90;3.87;;;;;;;21.08;42.47;98779.88;4995157;28;20901;-83
2022/04/12 11:05:04;;;;;;;3.87;3.20;;;;;;;21.50;41.39;98783.31;4995176;28;20415;-84
2022/04/12 11:07:32;;;;;;;4.07;3.63;;;;;;;21.44;41.87;98785.75;4995369;28;20501;-84
2022/04/12 11:10:23;;;;;;;5.33;4.73;;;;;;;21.85;41.79;98774.53;4994767;28;20892;-84
2022/04/12 11:13:04;;;;;;;4.53;3.70;;;;;;;21.95;41.72;98778.94;4994380;28;20475;-83
2022/04/12 11:15:32;;;;;;;5.37;3.90;;;;;;;21.86;41.53;98767.16;4994229;28;20437;-83
2022/04/12 11:18:07;;;;;;;3.33;2.97;;;;;;;21.42;41.94;98773.28;4994648;28;20431;-83
2022/04/12 11:20:35;;;;;;;3.80;3.40;;;;;;;21.77;41.46;98769.09;4994432;28;20441;-84
2022/04/12 11:23:07;;;;;;;5.30;3.47;;;;;;;22.07;40.98;98766.53;4994245;28;20430;-83
2022/04/12 11:25:34;;;;;;;3.57;3.27;;;;;;;21.90;40.47;98771.25;4994408;28;20437;-84
2022/04/12 11:28:02;;;;;;;4.90;3.77;;;;;;;22.00;40.41;98776.50;4995251;28;20921;-83
2022/04/12 11:30:30;;;;;;;4.63;3.33;;;;;;;21.81;39.94;98772.34;4994528;28;20570;-84
2022/04/12 11:32:58;;;;;;;8.13;3.80;;;;;;;21.90;39.58;98771.25;4995249;28;20501;-84
2022/04/12 11:35:25;;;;;;;6.43;3.30;;;;;;;22.13;39.29;98775.91;4994599;28;20437;-85
2022/04/12 11:37:52;;;;;;;5.07;3.60;;;;;;;22.45;39.38;98774.78;4994533;28;20449;-84
2022/04/12 11:40:19;;;;;;;6.23;4.00;;;;;;;22.60;38.78;98772.09;4994083;28;20446;-84